Time;durP1;ratioP1;P1;durP2;ratioP2;P2;SDS_P1;SDS_P2;PMS_P1;PMS_P2;Temp;Humidity;BMP_temperature;BMP_pressure;BME280_temperature;BME280_humidity;BME280_pressure;Samples;Min_cycle;Max_cycle;Signal;HPM_P1;HPM_P2
2023/12/20 00:01:33;;;;;;;0.90;0.75;;;7.40;99.90;;;;;;5041026;28;20056;-68
2023/12/20 00:03:59;;;;;;;0.55;0.55;;;7.30;99.90;;;;;;5050566;28;20029;-67
2023/12/20 00:06:25;;;;;;;3.67;0.50;;;7.30;99.90;;;;;;5044309;28;20123;-68
2023/12/20 00:08:50;;;;;;;0.30;0.30;;;7.20;99.90;;;;;;5053075;28;20389;-67
2023/12/20 00:11:16;;;;;;;0.20;0.20;;;7.20;99.90;;;;;;5054869;28;20037;-67
2023/12/20 00:13:42;;;;;;;0.60;0.47;;;7.20;99.90;;;;;;5053522;28;20029;-67
2023/12/20 00:16:09;;;;;;;8.68;0.45;;;7.20;99.90;;;;;;5053584;28;20025;-68
2023/12/20 00:18:35;;;;;;;3.40;0.65;;;7.20;99.90;;;;;;5054637;28;20075;-67
2023/12/20 00:21:01;;;;;;;0.03;0.00;;;7.20;99.90;;;;;;5054572;28;20048;-69
2023/12/20 00:23:28;;;;;;;11.70;3.85;;;7.20;99.90;;;;;;5043891;28;20458;-68
2023/12/20 00:25:54;;;;;;;3.60;1.20;;;7.20;99.90;;;;;;5051254;28;20025;-68
2023/12/20 00:28:21;;;;;;;0.52;0.52;;;7.30;99.90;;;;;;5054519;28;20043;-68
2023/12/20 00:30:47;;;;;;;0.80;0.55;;;7.30;99.90;;;;;;5054231;28;20021;-68
2023/12/20 00:33:13;;;;;;;0.20;0.20;;;7.30;99.90;;;;;;5054711;28;20135;-67
2023/12/20 00:35:39;;;;;;;7.25;0.43;;;7.30;99.90;;;;;;5054424;28;20508;-69
2023/12/20 00:38:06;;;;;;;12.55;1.27;;;7.30;99.90;;;;;;5054073;28;20116;-68
2023/12/20 00:40:33;;;;;;;5.20;0.85;;;7.40;99.90;;;;;;5053984;28;20017;-68
2023/12/20 00:42:58;;;;;;;0.22;0.22;;;7.40;99.90;;;;;;5050906;28;20025;-68
2023/12/20 00:45:24;;;;;;;0.00;0.00;;;7.40;99.90;;;;;;5043793;28;20112;-67
2023/12/20 00:47:50;;;;;;;0.30;0.30;;;7.40;99.90;;;;;;5052689;28;20036;-68
2023/12/20 00:50:16;;;;;;;2.05;1.77;;;7.40;99.90;;;;;;5034207;28;20032;-67
2023/12/20 00:52:42;;;;;;;0.17;0.17;;;7.40;99.90;;;;;;5046224;28;20059;-68
2023/12/20 00:55:08;;;;;;;0.00;0.00;;;7.50;99.90;;;;;;5053914;28;20052;-68
2023/12/20 00:57:34;;;;;;;12.45;2.03;;;7.40;99.90;;;;;;5054099;28;20029;-69
2023/12/20 01:00:00;;;;;;;3.70;2.58;;;7.40;99.90;;;;;;5053750;28;20033;-68
2023/12/20 01:02:26;;;;;;;8.48;0.65;;;7.40;99.90;;;;;;5052625;28;20500;-67
2023/12/20 01:04:51;;;;;;;1.05;1.05;;;7.40;99.90;;;;;;5040736;28;20390;-68
2023/12/20 01:07:17;;;;;;;6.20;0.30;;;7.40;99.90;;;;;;5051287;28;20385;-67
2023/12/20 01:09:43;;;;;;;3.53;1.85;;;7.40;99.90;;;;;;5053525;28;20021;-69
2023/12/20 01:12:09;;;;;;;1.65;0.40;;;7.40;99.90;;;;;;5052656;28;20048;-67
2023/12/20 01:14:35;;;;;;;4.28;0.65;;;7.40;99.90;;;;;;5053762;28;20076;-68
2023/12/20 01:17:01;;;;;;;1.10;1.10;;;7.40;99.90;;;;;;5053657;28;20037;-68
2023/12/20 01:19:28;;;;;;;0.10;0.10;;;7.40;99.90;;;;;;5053658;28;20505;-68
2023/12/20 01:21:54;;;;;;;0.43;0.15;;;7.40;99.90;;;;;;5034895;28;20051;-69
2023/12/20 01:24:19;;;;;;;1.38;0.80;;;7.50;99.90;;;;;;5033595;28;20037;-68
2023/12/20 01:26:45;;;;;;;0.73;0.57;;;7.40;99.90;;;;;;5033198;28;20045;-68
2023/12/20 01:29:12;;;;;;;3.05;1.10;;;7.40;99.90;;;;;;5033349;28;20037;-69
2023/12/20 01:31:37;;;;;;;0.10;0.10;;;7.40;99.90;;;;;;5033423;28;20097;-67
2023/12/20 01:34:03;;;;;;;1.70;1.42;;;7.40;99.90;;;;;;5032194;28;20071;-67
2023/12/20 01:36:29;;;;;;;2.97;1.55;;;7.40;99.90;;;;;;5033116;28;20482;-68
2023/12/20 01:38:55;;;;;;;0.00;0.00;;;7.40;99.90;;;;;;5033166;28;20010;-67
2023/12/20 01:41:20;;;;;;;3.35;1.95;;;7.40;99.90;;;;;;5033057;28;20033;-67
2023/12/20 01:43:47;;;;;;;1.45;0.98;;;7.40;99.90;;;;;;5033467;28;20025;-68
2023/12/20 01:46:13;;;;;;;10.95;1.23;;;7.40;99.90;;;;;;5032922;28;20470;-68
2023/12/20 01:48:38;;;;;;;0.10;0.10;;;7.40;99.90;;;;;;5033375;28;20022;-67
2023/12/20 01:51:04;;;;;;;7.15;0.77;;;7.40;99.90;;;;;;5032843;28;20382;-68
2023/12/20 01:53:32;;;;;;;0.00;0.00;;;7.40;99.90;;;;;;5033124;28;20041;-68
2023/12/20 01:55:59;;;;;;;0.90;0.90;;;7.40;99.90;;;;;;5048548;28;20064;-68
2023/12/20 01:58:25;;;;;;;1.55;0.75;;;7.50;99.90;;;;;;5033010;28;20025;-67
2023/12/20 02:00:51;;;;;;;5.57;1.15;;;7.50;99.90;;;;;;5032989;28;20018;-67
2023/12/20 02:03:18;;;;;;;1.83;1.38;;;7.50;99.90;;;;;;5032994;28;20051;-68
2023/12/20 02:05:45;;;;;;;1.63;0.82;;;7.60;99.90;;;;;;5032898;28;20036;-69
2023/12/20 02:08:11;;;;;;;0.75;0.47;;;7.60;99.90;;;;;;5032815;28;20037;-69
2023/12/20 02:10:38;;;;;;;2.13;0.52;;;7.60;99.90;;;;;;5032526;28;20098;-69
2023/12/20 02:13:04;;;;;;;6.15;1.65;;;7.60;99.90;;;;;;5031582;28;20032;-68
2023/12/20 02:15:30;;;;;;;7.65;1.33;;;7.60;99.90;;;;;;5029105;28;20056;-67
2023/12/20 02:17:56;;;;;;;2.13;1.40;;;7.60;99.90;;;;;;5021373;28;20064;-69
2023/12/20 02:20:22;;;;;;;0.13;0.13;;;7.60;99.90;;;;;;5032064;28;20032;-69
2023/12/20 02:22:48;;;;;;;0.80;0.63;;;7.60;99.90;;;;;;5034900;28;20025;-68
2023/12/20 02:25:15;;;;;;;1.52;1.50;;;7.60;99.90;;;;;;5037006;28;20485;-68
2023/12/20 02:27:41;;;;;;;0.45;0.45;;;7.50;99.90;;;;;;5036587;28;20041;-67
2023/12/20 02:30:08;;;;;;;9.80;1.77;;;7.50;99.90;;;;;;5036674;28;20068;-69
2023/12/20 02:32:34;;;;;;;0.30;0.28;;;7.60;99.90;;;;;;5036500;28;20064;-67
2023/12/20 02:34:59;;;;;;;0.10;0.10;;;7.60;99.90;;;;;;5036612;28;20050;-67
2023/12/20 02:37:26;;;;;;;0.73;0.50;;;7.60;99.90;;;;;;5036263;28;20091;-68
2023/12/20 02:39:52;;;;;;;0.00;0.00;;;7.70;99.90;;;;;;5036668;28;20470;-67
2023/12/20 02:42:18;;;;;;;0.35;0.35;;;7.80;99.90;;;;;;5023358;28;20065;-69
2023/12/20 02:44:43;;;;;;;0.00;0.00;;;7.90;99.90;;;;;;5035814;28;20033;-69
2023/12/20 02:47:09;;;;;;;12.88;1.27;;;7.80;99.90;;;;;;5036287;28;20124;-68
2023/12/20 02:49:35;;;;;;;0.05;0.05;;;7.80;99.90;;;;;;5036233;28;20025;-68
2023/12/20 02:52:01;;;;;;;0.00;0.00;;;7.60;99.90;;;;;;5036322;28;20026;-68
2023/12/20 02:54:28;;;;;;;0.30;0.30;;;7.60;99.90;;;;;;5036324;28;20460;-68
2023/12/20 02:56:53;;;;;;;0.15;0.15;;;7.50;99.90;;;;;;5036486;28;20029;-68
2023/12/20 02:59:19;;;;;;;6.32;3.10;;;7.60;99.90;;;;;;5034965;28;20068;-68
2023/12/20 03:01:46;;;;;;;4.43;1.80;;;7.60;99.90;;;;;;5035018;28;20072;-68
2023/12/20 03:04:12;;;;;;;2.53;0.95;;;7.50;99.90;;;;;;5036213;28;20033;-68
2023/12/20 03:06:38;;;;;;;6.32;2.85;;;7.50;99.90;;;;;;5035913;28;20029;-68
2023/12/20 03:09:04;;;;;;;0.40;0.40;;;7.40;99.90;;;;;;5036090;28;20028;-67
2023/12/20 03:11:30;;;;;;;0.25;0.15;;;7.40;99.90;;;;;;5035888;28;20124;-67
2023/12/20 03:13:57;;;;;;;0.73;0.73;;;7.40;99.90;;;;;;5036120;28;20104;-68
2023/12/20 03:16:24;;;;;;;3.10;0.40;;;7.40;99.90;;;;;;5035879;28;20117;-68
2023/12/20 03:18:49;;;;;;;2.67;0.85;;;7.50;99.90;;;;;;5035675;28;20100;-67
2023/12/20 03:21:15;;;;;;;0.00;0.00;;;7.40;99.90;;;;;;5036162;28;20485;-68
2023/12/20 03:23:41;;;;;;;0.00;0.00;;;7.50;99.90;;;;;;5035781;28;20025;-69
2023/12/20 03:26:08;;;;;;;1.83;1.02;;;7.50;99.90;;;;;;5035901;28;20036;-68
2023/12/20 03:28:34;;;;;;;3.83;0.98;;;7.40;99.90;;;;;;5035478;28;20497;-68
2023/12/20 03:31:02;;;;;;;0.30;0.30;;;7.50;99.90;;;;;;5035268;28;20036;-68
2023/12/20 03:33:28;;;;;;;0.40;0.40;;;7.50;99.90;;;;;;5034833;28;20029;-68
2023/12/20 03:35:54;;;;;;;5.68;1.48;;;7.50;99.90;;;;;;5035446;28;20029;-68
2023/12/20 03:38:21;;;;;;;0.57;0.57;;;7.40;99.90;;;;;;5035348;28;20417;-68
2023/12/20 03:40:47;;;;;;;0.38;0.38;;;7.40;99.90;;;;;;5034029;28;20049;-68
2023/12/20 03:43:12;;;;;;;0.25;0.25;;;7.40;99.90;;;;;;5035346;28;20108;-67
2023/12/20 03:45:38;;;;;;;0.43;0.38;;;7.40;99.90;;;;;;5035194;28;20037;-69
2023/12/20 03:48:05;;;;;;;0.03;0.03;;;7.50;99.90;;;;;;5035384;28;20036;-68
2023/12/20 03:50:31;;;;;;;0.10;0.10;;;7.40;99.90;;;;;;5050508;28;20038;-67
2023/12/20 03:52:57;;;;;;;2.85;0.50;;;7.40;99.90;;;;;;5035283;28;20379;-68
2023/12/20 03:55:23;;;;;;;1.35;0.52;;;7.40;99.90;;;;;;5035213;28;20025;-68
2023/12/20 03:57:48;;;;;;;1.48;0.95;;;7.30;99.90;;;;;;5035277;28;20033;-68
2023/12/20 04:00:15;;;;;;;0.00;0.00;;;7.30;99.90;;;;;;5034785;28;20115;-68
2023/12/20 04:02:41;;;;;;;7.88;0.75;;;7.30;99.90;;;;;;5035274;28;20038;-68
2023/12/20 04:05:08;;;;;;;2.45;1.95;;;7.20;99.90;;;;;;5033897;28;20065;-67
2023/12/20 04:07:35;;;;;;;4.57;1.48;;;7.30;99.90;;;;;;5035184;28;20034;-68
2023/12/20 04:10:01;;;;;;;1.65;1.27;;;7.40;99.90;;;;;;5020853;28;20548;-69
2023/12/20 04:12:28;;;;;;;8.90;0.77;;;7.30;99.90;;;;;;5050274;28;20087;-68
2023/12/20 04:14:54;;;;;;;0.08;0.08;;;7.30;99.90;;;;;;5034527;28;20013;-68
2023/12/20 04:17:22;;;;;;;0.10;0.10;;;7.30;99.90;;;;;;5034875;28;20452;-67
2023/12/20 04:19:49;;;;;;;4.55;0.50;;;7.30;99.90;;;;;;5034901;28;20505;-69
2023/12/20 04:22:14;;;;;;;2.88;1.42;;;7.30;99.90;;;;;;5021097;28;20429;-67
2023/12/20 04:24:42;;;;;;;1.88;1.75;;;7.30;99.90;;;;;;5034693;28;20026;-68
2023/12/20 04:27:08;;;;;;;5.45;0.75;;;7.30;99.90;;;;;;5020632;28;20037;-68
2023/12/20 04:29:34;;;;;;;2.95;0.45;;;7.30;99.90;;;;;;5034250;28;20026;-68
2023/12/20 04:32:00;;;;;;;0.38;0.25;;;7.40;99.90;;;;;;5034653;28;20056;-67
2023/12/20 04:34:26;;;;;;;7.85;0.55;;;7.40;99.90;;;;;;5034408;28;20124;-67
2023/12/20 04:36:53;;;;;;;4.38;3.03;;;7.40;99.90;;;;;;5033416;28;20489;-68
2023/12/20 04:39:19;;;;;;;0.52;0.35;;;7.40;99.90;;;;;;5033300;28;20033;-68
2023/12/20 04:41:44;;;;;;;1.10;0.85;;;7.40;99.90;;;;;;5032992;28;20039;-69
2023/12/20 04:44:11;;;;;;;0.00;0.00;;;7.40;99.90;;;;;;5034229;28;20021;-69
2023/12/20 04:46:37;;;;;;;0.10;0.10;;;7.50;99.90;;;;;;5031753;28;20095;-68
2023/12/20 04:49:03;;;;;;;4.95;2.25;;;7.60;99.90;;;;;;5034409;28;20120;-68
2023/12/20 04:51:29;;;;;;;4.03;1.45;;;7.40;99.90;;;;;;5033898;28;20061;-69
2023/12/20 04:53:55;;;;;;;0.25;0.25;;;7.40;99.90;;;;;;5034306;28;20426;-68
2023/12/20 04:56:21;;;;;;;5.20;1.17;;;7.40;99.90;;;;;;5033807;28;20050;-69
2023/12/20 04:58:46;;;;;;;1.65;0.13;;;7.40;99.90;;;;;;5033870;28;20418;-68
2023/12/20 05:01:13;;;;;;;1.10;0.43;;;7.40;99.90;;;;;;5021467;28;20031;-68
2023/12/20 05:03:38;;;;;;;0.10;0.10;;;7.30;99.90;;;;;;5038643;28;20420;-68
2023/12/20 05:06:04;;;;;;;0.17;0.17;;;7.30;99.90;;;;;;5040730;28;20034;-68
2023/12/20 05:08:30;;;;;;;1.85;1.30;;;7.30;99.90;;;;;;5033614;28;20432;-68
2023/12/20 05:10:56;;;;;;;2.63;1.30;;;7.30;99.90;;;;;;5033511;28;20626;-68
2023/12/20 05:13:22;;;;;;;0.43;0.43;;;7.40;99.90;;;;;;5033492;28;20025;-68
2023/12/20 05:15:48;;;;;;;0.05;0.05;;;7.40;99.90;;;;;;5033594;28;20025;-68
2023/12/20 05:18:14;;;;;;;0.00;0.00;;;7.40;99.90;;;;;;5033683;28;20034;-67
2023/12/20 05:20:40;;;;;;;1.85;0.43;;;7.40;99.90;;;;;;5033477;28;20179;-69
2023/12/20 05:23:07;;;;;;;4.47;2.10;;;7.30;99.90;;;;;;5032415;28;20029;-69
2023/12/20 05:25:33;;;;;;;0.00;0.00;;;7.30;99.90;;;;;;5033224;28;20152;-68
2023/12/20 05:27:58;;;;;;;0.22;0.22;;;7.30;99.90;;;;;;5032244;28;20496;-68
2023/12/20 05:30:24;;;;;;;0.00;0.00;;;7.20;99.90;;;;;;5033097;28;20029;-69
2023/12/20 05:32:51;;;;;;;5.88;2.15;;;7.20;99.90;;;;;;5033383;28;20486;-67
2023/12/20 05:35:17;;;;;;;0.90;0.45;;;7.10;99.90;;;;;;5033545;28;20022;-68
2023/12/20 05:37:43;;;;;;;0.10;0.10;;;7.20;99.90;;;;;;5033138;28;20434;-67
2023/12/20 05:40:12;;;;;;;7.65;2.97;;;7.20;99.90;;;;;;5033443;28;20042;-67
2023/12/20 05:42:38;;;;;;;14.50;1.65;;;7.30;99.90;;;;;;5031591;28;20048;-68
2023/12/20 05:45:06;;;;;;;1.80;0.57;;;7.40;99.90;;;;;;5033588;28;20355;-69
2023/12/20 05:47:33;;;;;;;0.00;0.00;;;7.40;99.90;;;;;;5032778;28;20200;-69
2023/12/20 05:49:59;;;;;;;1.08;0.10;;;7.40;99.90;;;;;;5033532;28;20124;-68
2023/12/20 05:52:24;;;;;;;11.10;1.50;;;7.40;99.90;;;;;;5033207;28;20390;-67
2023/12/20 05:54:50;;;;;;;0.00;0.00;;;7.50;99.90;;;;;;5033146;28;20025;-68
2023/12/20 05:57:16;;;;;;;5.93;1.40;;;7.60;99.90;;;;;;5032602;28;20371;-67
2023/12/20 05:59:42;;;;;;;6.28;0.80;;;7.60;99.90;;;;;;5031794;28;20083;-68
2023/12/20 06:02:08;;;;;;;5.70;2.40;;;7.60;99.90;;;;;;5032831;28;20028;-68
2023/12/20 06:04:35;;;;;;;0.00;0.00;;;7.60;99.90;;;;;;5031605;28;20120;-69
2023/12/20 06:07:01;;;;;;;9.35;0.70;;;7.70;99.90;;;;;;5032855;28;20442;-69
2023/12/20 06:09:29;;;;;;;0.43;0.43;;;7.70;99.90;;;;;;5032895;28;20057;-68
2023/12/20 06:11:55;;;;;;;5.68;0.20;;;7.70;99.90;;;;;;5032396;28;20033;-68
2023/12/20 06:14:21;;;;;;;2.95;1.17;;;7.80;99.90;;;;;;5033043;28;20026;-68
2023/12/20 06:16:47;;;;;;;0.47;0.47;;;7.90;99.90;;;;;;5032804;28;20022;-69
2023/12/20 06:19:13;;;;;;;12.32;0.98;;;7.90;99.90;;;;;;5033150;28;20037;-68
2023/12/20 06:21:38;;;;;;;7.18;2.10;;;7.90;99.90;;;;;;5032493;28;20017;-69
2023/12/20 06:24:04;;;;;;;24.70;1.85;;;7.90;99.90;;;;;;5032998;28;20386;-68
2023/12/20 06:26:30;;;;;;;12.30;0.63;;;7.90;99.90;;;;;;5032378;28;20051;-68
2023/12/20 06:28:56;;;;;;;1.20;1.10;;;7.90;99.90;;;;;;5031570;28;20025;-69
2023/12/20 06:31:22;;;;;;;3.60;1.40;;;7.90;99.90;;;;;;5032573;28;20033;-69
2023/12/20 06:33:57;;;;;;;0.77;0.77;;;8.10;99.90;;;;;;5032750;28;20029;-67
2023/12/20 06:36:23;;;;;;;0.60;0.20;;;8.00;99.90;;;;;;5032863;28;20034;-69
2023/12/20 06:38:49;;;;;;;0.47;0.28;;;8.00;99.90;;;;;;5031510;28;20038;-68
2023/12/20 06:41:16;;;;;;;10.05;2.47;;;7.90;99.90;;;;;;5032498;28;20045;-69
2023/12/20 06:43:42;;;;;;;12.20;1.65;;;7.90;99.90;;;;;;5032647;28;20049;-67
2023/12/20 06:46:08;;;;;;;0.10;0.10;;;8.00;99.90;;;;;;5032469;28;20049;-69
2023/12/20 06:48:34;;;;;;;4.00;0.65;;;8.10;99.90;;;;;;5032541;28;20052;-67
2023/12/20 06:51:02;;;;;;;1.58;0.70;;;8.10;99.90;;;;;;5032541;28;20029;-68
2023/12/20 06:53:28;;;;;;;13.52;1.27;;;7.90;99.90;;;;;;5032595;28;20116;-68
2023/12/20 06:55:56;;;;;;;9.18;1.95;;;7.80;99.90;;;;;;5032244;28;20076;-68
2023/12/20 06:58:22;;;;;;;30.05;2.38;;;7.70;99.90;;;;;;5018538;28;20052;-68
2023/12/20 07:00:48;;;;;;;12.73;1.08;;;7.60;99.90;;;;;;5031129;28;20030;-68
2023/12/20 07:03:14;;;;;;;0.20;0.20;;;7.60;99.90;;;;;;5032387;28;20484;-68
2023/12/20 07:05:40;;;;;;;14.32;1.27;;;7.70;99.90;;;;;;5031220;28;20037;-68
2023/12/20 07:08:06;;;;;;;13.55;2.17;;;7.60;99.90;;;;;;5032291;28;20037;-67
2023/12/20 07:10:32;;;;;;;6.18;0.52;;;7.60;99.90;;;;;;5035053;28;20025;-68
2023/12/20 07:12:58;;;;;;;8.52;2.25;;;7.50;99.90;;;;;;5036009;28;20474;-69
2023/12/20 07:15:24;;;;;;;0.82;0.28;;;7.40;99.90;;;;;;5035937;28;20029;-68
2023/12/20 07:17:50;;;;;;;2.85;1.08;;;7.40;99.90;;;;;;5036042;28;20029;-68
2023/12/20 07:20:16;;;;;;;4.32;0.98;;;7.40;99.90;;;;;;5035871;28;20028;-67
2023/12/20 07:22:42;;;;;;;0.03;0.03;;;7.30;99.90;;;;;;5035709;28;20033;-68
2023/12/20 07:25:08;;;;;;;14.60;4.15;;;7.30;99.90;;;;;;5050944;28;20038;-68
2023/12/20 07:27:34;;;;;;;10.27;1.85;;;7.30;99.90;;;;;;5036067;28;20040;-68
2023/12/20 07:30:00;;;;;;;14.45;1.95;;;7.30;99.90;;;;;;5035607;28;20414;-68
2023/12/20 07:32:26;;;;;;;19.08;2.88;;;7.30;99.90;;;;;;5051069;28;20037;-67
2023/12/20 07:34:52;;;;;;;2.15;1.00;;;7.30;99.90;;;;;;5034463;28;20026;-69
2023/12/20 07:37:17;;;;;;;0.80;0.35;;;7.30;99.90;;;;;;5035472;28;20539;-68
2023/12/20 07:39:43;;;;;;;5.80;1.45;;;7.30;99.90;;;;;;5035171;28;20386;-67
2023/12/20 07:42:10;;;;;;;1.35;0.38;;;7.30;99.90;;;;;;5035387;28;20037;-68
2023/12/20 07:44:36;;;;;;;0.73;0.60;;;7.20;99.90;;;;;;5034888;28;20084;-67
2023/12/20 07:47:02;;;;;;;1.02;0.20;;;7.20;99.90;;;;;;5034656;28;20092;-67
2023/12/20 07:49:28;;;;;;;1.23;1.13;;;7.20;99.90;;;;;;5035300;28;20025;-68
2023/12/20 07:51:54;;;;;;;0.00;0.00;;;7.30;99.90;;;;;;5034789;28;20021;-68
2023/12/20 07:54:19;;;;;;;16.13;1.35;;;7.30;99.90;;;;;;5034160;28;20029;-68
2023/12/20 07:56:47;;;;;;;2.92;0.95;;;7.40;99.90;;;;;;5035201;28;20029;-68
2023/12/20 07:59:12;;;;;;;0.10;0.10;;;7.40;99.90;;;;;;5035396;28;20030;-67
2023/12/20 08:01:38;;;;;;;3.78;1.98;;;7.50;99.90;;;;;;5035158;28;20029;-68
2023/12/20 08:04:04;;;;;;;5.63;0.47;;;7.50;99.90;;;;;;5034995;28;20053;-68
2023/12/20 08:06:30;;;;;;;4.05;1.42;;;7.50;99.90;;;;;;5034271;28;20480;-67
2023/12/20 08:08:57;;;;;;;0.00;0.00;;;7.40;99.90;;;;;;5034907;28;20037;-68
2023/12/20 08:11:22;;;;;;;1.65;0.68;;;7.40;99.90;;;;;;5034545;28;20029;-67
2023/12/20 08:13:48;;;;;;;0.55;0.30;;;7.30;99.90;;;;;;5034897;28;20363;-68
2023/12/20 08:16:15;;;;;;;1.27;0.68;;;7.20;99.90;;;;;;5034981;28;20018;-69
2023/12/20 08:18:41;;;;;;;6.40;0.73;;;7.30;99.90;;;;;;5033417;28;20461;-69
2023/12/20 08:21:08;;;;;;;0.65;0.65;;;7.20;99.90;;;;;;5034420;28;20392;-69
2023/12/20 08:23:34;;;;;;;8.52;1.10;;;7.30;99.90;;;;;;5034757;28;20021;-69
2023/12/20 08:26:07;;;;;;;19.98;1.95;;;7.30;99.90;;;;;;5034525;28;20037;-69
2023/12/20 08:28:33;;;;;;;0.00;0.00;;;7.40;99.90;;;;;;5034691;28;20056;-69
2023/12/20 08:31:00;;;;;;;1.27;0.68;;;7.20;99.90;;;;;;5034334;28;20144;-68
2023/12/20 08:33:27;;;;;;;5.47;0.95;;;7.30;99.90;;;;;;5049727;28;20096;-67
2023/12/20 08:35:53;;;;;;;3.30;0.82;;;7.30;99.90;;;;;;5033866;28;20029;-68
2023/12/20 08:38:18;;;;;;;3.65;0.85;;;7.40;99.90;;;;;;5032967;28;20030;-69
2023/12/20 08:40:46;;;;;;;17.20;1.52;;;7.30;99.90;;;;;;5033964;28;20021;-69
2023/12/20 08:43:11;;;;;;;13.38;1.60;;;7.30;99.90;;;;;;5033264;28;20030;-69
2023/12/20 08:45:38;;;;;;;20.30;4.07;;;7.40;99.90;;;;;;5033186;28;20051;-69
2023/12/20 08:48:05;;;;;;;10.50;1.05;;;7.50;99.90;;;;;;5029335;28;20045;-68
2023/12/20 08:50:31;;;;;;;0.03;0.03;;;7.50;99.90;;;;;;5025135;28;20064;-69
2023/12/20 08:52:57;;;;;;;6.72;0.90;;;7.60;99.90;;;;;;5034112;28;20042;-70
2023/12/20 08:55:23;;;;;;;2.90;1.35;;;7.80;99.90;;;;;;5049637;28;20018;-69
2023/12/20 08:57:50;;;;;;;2.35;0.85;;;7.70;99.90;;;;;;5034181;28;20021;-69
2023/12/20 09:00:16;;;;;;;1.30;0.40;;;7.70;99.90;;;;;;5032765;28;20057;-69
2023/12/20 09:02:42;;;;;;;10.93;1.38;;;7.70;99.90;;;;;;5034109;28;20026;-68
2023/12/20 09:05:08;;;;;;;5.65;2.03;;;7.70;99.90;;;;;;5033636;28;20386;-70
2023/12/20 09:07:34;;;;;;;1.33;0.80;;;7.80;99.90;;;;;;5033844;28;20033;-69
2023/12/20 09:10:00;;;;;;;3.45;2.00;;;8.00;99.90;;;;;;5033358;28;20049;-68
2023/12/20 09:12:37;;;;;;;6.43;1.50;;;8.10;99.90;;;;;;5033961;28;20501;-70
2023/12/20 09:15:06;;;;;;;4.97;0.75;;;8.10;99.90;;;;;;5033608;28;20036;-69
2023/12/20 09:17:32;;;;;;;6.53;0.73;;;8.10;99.90;;;;;;5032629;28;20470;-68
2023/12/20 09:19:59;;;;;;;1.17;0.80;;;8.30;99.90;;;;;;5033216;28;20024;-69
2023/12/20 09:22:25;;;;;;;4.57;1.90;;;8.40;99.90;;;;;;5048995;28;20079;-69
2023/12/20 09:24:51;;;;;;;4.22;1.58;;;8.50;99.90;;;;;;5033619;28;20037;-69
2023/12/20 09:27:17;;;;;;;2.58;1.30;;;8.30;99.90;;;;;;5031978;28;20036;-68
2023/12/20 09:29:43;;;;;;;5.10;0.45;;;8.20;99.90;;;;;;5033412;28;20018;-68
2023/12/20 09:32:09;;;;;;;1.20;1.08;;;8.20;99.90;;;;;;5032752;28;20125;-69
2023/12/20 09:34:34;;;;;;;26.05;3.70;;;8.30;99.90;;;;;;5033344;28;20431;-69
2023/12/20 09:37:00;;;;;;;4.38;2.05;;;8.20;99.90;;;;;;5033330;28;20398;-67
2023/12/20 09:39:26;;;;;;;4.85;1.17;;;8.20;99.90;;;;;;5033210;28;20029;-68
2023/12/20 09:42:05;;;;;;;15.20;2.95;;;8.30;99.90;;;;;;5031938;28;20060;-69
2023/12/20 09:44:34;;;;;;;1.05;0.90;;;8.30;99.90;;;;;;5033279;28;20112;-68
2023/12/20 09:47:03;;;;;;;5.68;0.95;;;8.40;99.90;;;;;;5033214;28;20373;-68
2023/12/20 09:49:30;;;;;;;5.00;1.98;;;8.40;99.90;;;;;;5033005;28;20117;-70
2023/12/20 09:51:56;;;;;;;8.57;1.40;;;8.50;99.90;;;;;;5033589;28;20083;-70
2023/12/20 09:54:23;;;;;;;5.72;1.65;;;8.40;99.90;;;;;;5033146;28;20041;-68
2023/12/20 09:56:50;;;;;;;3.40;1.00;;;8.30;99.90;;;;;;5033148;28;20378;-68
2023/12/20 09:59:16;;;;;;;4.15;2.30;;;8.30;99.90;;;;;;5033285;28;20025;-69
2023/12/20 10:01:43;;;;;;;3.05;0.70;;;8.30;99.90;;;;;;5032858;28;20080;-68
2023/12/20 10:04:12;;;;;;;8.35;1.48;;;8.30;99.90;;;;;;5032897;28;20394;-68
2023/12/20 10:06:44;;;;;;;0.68;0.47;;;8.30;99.90;;;;;;5032656;28;20216;-68
2023/12/20 10:09:11;;;;;;;0.40;0.40;;;8.40;99.90;;;;;;5033046;28;20030;-69
2023/12/20 10:11:40;;;;;;;3.03;0.95;;;8.40;99.90;;;;;;5032455;28;20367;-69
2023/12/20 10:14:07;;;;;;;2.50;1.00;;;8.40;99.90;;;;;;5031854;28;20025;-69
2023/12/20 10:16:34;;;;;;;13.35;1.75;;;8.40;99.90;;;;;;5032626;28;20103;-69
2023/12/20 10:19:04;;;;;;;6.88;1.45;;;8.40;99.90;;;;;;5032616;28;20276;-69
2023/12/20 10:21:29;;;;;;;0.55;0.55;;;8.40;99.90;;;;;;5032657;28;20033;-69
2023/12/20 10:23:56;;;;;;;4.05;1.70;;;8.50;99.90;;;;;;5032789;28;20017;-68
2023/12/20 10:26:23;;;;;;;6.93;2.00;;;8.50;99.90;;;;;;5032939;28;20116;-68
2023/12/20 10:28:53;;;;;;;4.05;1.20;;;8.50;99.90;;;;;;5028816;28;20110;-68
2023/12/20 10:31:30;;;;;;;2.95;0.70;;;8.50;99.90;;;;;;5032479;28;20025;-68
2023/12/20 10:33:58;;;;;;;2.55;2.40;;;8.50;99.90;;;;;;5032573;28;20041;-69
2023/12/20 10:36:26;;;;;;;7.43;0.35;;;8.50;99.90;;;;;;5032888;28;20018;-69
2023/12/20 10:38:53;;;;;;;9.00;2.17;;;8.60;99.90;;;;;;5032761;28;20060;-69
2023/12/20 10:41:28;;;;;;;0.43;0.43;;;8.60;99.90;;;;;;5031441;28;20017;-69
2023/12/20 10:44:06;;;;;;;1.30;1.20;;;8.60;99.90;;;;;;5034950;28;20034;-69
2023/12/20 10:46:34;;;;;;;1.35;1.25;;;8.60;99.90;;;;;;5022757;28;20068;-70
2023/12/20 10:49:02;;;;;;;5.90;2.13;;;8.60;99.90;;;;;;5036541;28;20482;-70
2023/12/20 10:51:30;;;;;;;15.88;0.57;;;8.60;99.90;;;;;;5036048;28;20025;-69
2023/12/20 10:53:56;;;;;;;0.00;0.00;;;8.60;99.90;;;;;;5036541;28;20026;-68
2023/12/20 10:56:26;;;;;;;1.60;0.50;;;8.60;99.90;;;;;;5036380;28;20021;-69
2023/12/20 10:58:52;;;;;;;0.65;0.65;;;8.70;99.90;;;;;;5036257;28;20017;-69
2023/12/20 11:01:18;;;;;;;8.20;0.82;;;8.70;99.90;;;;;;5034617;28;20087;-69
2023/12/20 11:03:53;;;;;;;19.48;2.40;;;8.60;99.90;;;;;;5036357;28;20017;-69
2023/12/20 11:06:21;;;;;;;3.53;1.75;;;8.50;99.90;;;;;;5016885;28;20042;-69
2023/12/20 11:08:56;;;;;;;4.85;1.38;;;8.60;99.90;;;;;;5036082;28;20018;-68
2023/12/20 11:11:30;;;;;;;7.80;1.73;;;8.50;99.90;;;;;;5035845;28;20029;-69
2023/12/20 11:13:59;;;;;;;5.65;0.98;;;8.60;99.90;;;;;;5034741;28;20025;-68
2023/12/20 11:16:25;;;;;;;7.88;1.58;;;8.70;99.90;;;;;;5035822;28;20501;-69
2023/12/20 11:18:51;;;;;;;2.17;1.73;;;8.60;99.90;;;;;;5034853;28;20021;-70
2023/12/20 11:21:17;;;;;;;1.20;0.63;;;8.60;99.90;;;;;;5035747;28;20052;-68
2023/12/20 11:23:43;;;;;;;2.40;0.82;;;8.70;99.90;;;;;;5035727;28;20029;-69
2023/12/20 11:26:09;;;;;;;4.20;1.20;;;8.70;99.90;;;;;;5035790;28;20052;-69
2023/12/20 11:28:34;;;;;;;5.95;0.80;;;8.70;99.90;;;;;;5035819;28;20037;-69
2023/12/20 11:31:02;;;;;;;6.97;2.38;;;8.80;99.90;;;;;;5035631;28;20025;-69
2023/12/20 11:33:36;;;;;;;6.00;1.50;;;8.80;99.90;;;;;;5035522;28;20037;-69
2023/12/20 11:36:03;;;;;;;0.47;0.47;;;8.80;99.90;;;;;;5035638;28;20030;-70
2023/12/20 11:38:37;;;;;;;1.60;1.50;;;8.80;99.90;;;;;;5035548;28;20037;-68
2023/12/20 11:41:06;;;;;;;9.32;2.45;;;8.90;99.90;;;;;;5035573;28;20079;-69
2023/12/20 11:43:34;;;;;;;0.10;0.10;;;8.90;99.90;;;;;;5034149;28;20056;-70
2023/12/20 11:46:08;;;;;;;0.82;0.60;;;8.90;99.90;;;;;;5035140;28;20034;-68
2023/12/20 11:48:39;;;;;;;2.85;1.20;;;8.90;99.90;;;;;;5035413;28;20111;-70
2023/12/20 11:51:12;;;;;;;9.02;1.70;;;8.90;99.90;;;;;;5035229;28;20026;-68
2023/12/20 11:53:39;;;;;;;1.35;0.68;;;9.00;99.90;;;;;;5034180;28;20418;-69
2023/12/20 11:56:09;;;;;;;10.98;2.55;;;9.10;99.90;;;;;;5033225;28;20458;-68
2023/12/20 11:58:35;;;;;;;3.20;0.73;;;9.00;99.90;;;;;;5035114;28;20044;-69
2023/12/20 12:01:07;;;;;;;1.73;1.05;;;9.00;99.90;;;;;;5035095;28;20045;-69
2023/12/20 12:03:33;;;;;;;1.85;1.75;;;9.20;99.90;;;;;;5034924;28;20049;-68
2023/12/20 12:06:00;;;;;;;1.48;1.10;;;9.30;99.90;;;;;;5033387;28;20076;-69
2023/12/20 12:08:26;;;;;;;2.72;0.65;;;9.30;99.90;;;;;;5035021;28;20082;-68
2023/12/20 12:10:52;;;;;;;0.20;0.20;;;9.20;99.90;;;;;;5033549;28;20037;-70
2023/12/20 12:13:18;;;;;;;1.58;0.95;;;9.20;99.90;;;;;;5034799;28;20536;-69
2023/12/20 12:15:44;;;;;;;0.55;0.55;;;9.30;99.90;;;;;;5034642;28;20060;-69
2023/12/20 12:18:10;;;;;;;11.40;1.75;;;9.30;99.90;;;;;;5034917;28;20056;-69
2023/12/20 12:20:36;;;;;;;0.85;0.55;;;9.30;99.90;;;;;;5034458;28;20031;-69
2023/12/20 12:23:04;;;;;;;14.43;1.73;;;9.30;99.90;;;;;;5035031;28;20120;-70
2023/12/20 12:25:31;;;;;;;0.60;0.60;;;9.30;99.90;;;;;;5034521;28;20108;-70
2023/12/20 12:28:01;;;;;;;1.38;0.70;;;9.40;99.90;;;;;;5034308;28;20506;-70
2023/12/20 12:30:27;;;;;;;10.88;1.48;;;9.40;99.90;;;;;;5034525;28;20025;-66
2023/12/20 12:32:55;;;;;;;0.20;0.20;;;9.30;99.90;;;;;;5033298;28;20470;-69
2023/12/20 12:35:21;;;;;;;1.00;0.30;;;9.30;99.90;;;;;;5034643;28;20556;-70
2023/12/20 12:37:49;;;;;;;9.07;2.42;;;9.40;99.90;;;;;;5034497;28;20030;-69
2023/12/20 12:40:16;;;;;;;0.28;0.28;;;9.40;99.90;;;;;;5034442;28;20040;-69
2023/12/20 12:42:43;;;;;;;6.45;1.08;;;9.50;99.90;;;;;;5034082;28;20037;-70
2023/12/20 12:45:11;;;;;;;3.65;1.63;;;9.40;99.90;;;;;;5034573;28;20021;-69
2023/12/20 12:47:38;;;;;;;7.38;0.70;;;9.40;99.90;;;;;;5034012;28;20478;-69
2023/12/20 12:50:04;;;;;;;0.93;0.88;;;9.40;99.90;;;;;;5034123;28;20032;-69
2023/12/20 12:52:32;;;;;;;0.30;0.30;;;9.40;99.90;;;;;;5021356;28;20409;-69